Time;durP1;ratioP1;P1;durP2;ratioP2;P2;SDS_P1;SDS_P2;PMS_P1;PMS_P2;Temp;Humidity;BMP_temperature;BMP_pressure;BME280_temperature;BME280_humidity;BME280_pressure;Samples;Min_cycle;Max_cycle;Signal;HPM_P1;HPM_P2
2023/07/29 00:00:55;;;;;;;7.25;2.38;;;;;;;;;;5054651;28;20033;-77
2023/07/29 00:03:21;;;;;;;5.93;2.33;;;;;;;;;;5054967;28;20021;-77
2023/07/29 00:05:48;;;;;;;5.47;2.55;;;;;;;;;;5054470;28;20074;-77
2023/07/29 00:08:14;;;;;;;6.07;2.75;;;;;;;;;;5053183;28;20055;-77
2023/07/29 00:10:40;;;;;;;4.72;2.40;;;;;;;;;;5054629;28;20141;-77
2023/07/29 00:13:06;;;;;;;6.90;2.72;;;;;;;;;;5054516;28;20471;-77
2023/07/29 00:15:32;;;;;;;6.82;3.13;;;;;;;;;;5054500;28;20143;-77
2023/07/29 00:17:58;;;;;;;4.80;2.78;;;;;;;;;;5054507;28;20074;-77
2023/07/29 00:20:24;;;;;;;6.70;2.83;;;;;;;;;;5054471;28;20115;-76
2023/07/29 00:22:52;;;;;;;4.38;2.58;;;;;;;;;;5054547;28;20498;-77
2023/07/29 00:25:19;;;;;;;7.43;2.92;;;;;;;;;;5054624;28;20043;-77
2023/07/29 00:27:45;;;;;;;7.03;3.10;;;;;;;;;;5054189;28;20170;-77
2023/07/29 00:30:11;;;;;;;5.97;3.10;;;;;;;;;;5054139;28;20523;-77
2023/07/29 00:32:37;;;;;;;9.10;3.65;;;;;;;;;;5054218;28;20017;-77
2023/07/29 00:35:03;;;;;;;6.93;3.60;;;;;;;;;;5054152;28;20131;-77
2023/07/29 00:37:30;;;;;;;9.15;3.70;;;;;;;;;;5054050;28;20686;-77
2023/07/29 00:39:57;;;;;;;5.93;3.45;;;;;;;;;;5054125;28;20557;-77
2023/07/29 00:42:23;;;;;;;5.43;3.63;;;;;;;;;;5053931;28;20021;-77
2023/07/29 00:44:50;;;;;;;5.78;3.67;;;;;;;;;;5053766;28;20078;-76
2023/07/29 00:47:16;;;;;;;6.57;3.40;;;;;;;;;;5053899;28;20368;-77
2023/07/29 00:49:43;;;;;;;7.45;4.05;;;;;;;;;;5053960;28;20048;-77
2023/07/29 00:52:12;;;;;;;7.72;3.80;;;;;;;;;;5053887;28;20056;-77
2023/07/29 00:54:38;;;;;;;8.70;3.92;;;;;;;;;;5054202;28;20456;-77
2023/07/29 00:57:04;;;;;;;9.05;3.95;;;;;;;;;;5053846;28;20025;-77
2023/07/29 00:59:31;;;;;;;5.72;3.97;;;;;;;;;;5053826;28;20028;-77
2023/07/29 01:01:57;;;;;;;7.97;4.32;;;;;;;;;;5054154;28;20021;-77
2023/07/29 01:04:24;;;;;;;7.70;3.95;;;;;;;;;;5053636;28;20044;-77
2023/07/29 01:06:53;;;;;;;6.22;4.00;;;;;;;;;;5053587;28;20586;-76
2023/07/29 01:09:48;;;;;;;8.75;4.70;;;;;;;;;;5052498;28;20049;-77
2023/07/29 01:12:17;;;;;;;8.07;4.35;;;;;;;;;;5033638;28;20580;-77
2023/07/29 01:14:51;;;;;;;10.27;4.70;;;;;;;;;;5053619;28;20059;-77
2023/07/29 01:17:30;;;;;;;10.07;5.40;;;;;;;;;;5053366;28;20480;-77
2023/07/29 01:20:03;;;;;;;10.17;4.93;;;;;;;;;;5053629;28;20036;-77
2023/07/29 01:22:30;;;;;;;9.05;4.72;;;;;;;;;;5054110;28;20519;-77
2023/07/29 01:24:57;;;;;;;9.30;4.82;;;;;;;;;;5053237;28;20025;-77
2023/07/29 01:27:23;;;;;;;8.13;4.78;;;;;;;;;;5053073;28;20040;-76
2023/07/29 01:29:49;;;;;;;9.98;4.93;;;;;;;;;;5053096;28;20029;-76
2023/07/29 01:32:20;;;;;;;8.20;4.75;;;;;;;;;;5053160;28;20077;-77
2023/07/29 01:34:49;;;;;;;7.60;4.45;;;;;;;;;;5053468;28;20563;-76
2023/07/29 01:37:18;;;;;;;7.32;4.20;;;;;;;;;;5053443;28;20090;-77
2023/07/29 01:39:46;;;;;;;7.33;4.57;;;;;;;;;;5052970;28;20025;-76
2023/07/29 01:42:12;;;;;;;5.82;4.03;;;;;;;;;;5053226;28;20353;-76
2023/07/29 01:44:38;;;;;;;6.18;3.90;;;;;;;;;;5052900;28;20017;-76
2023/07/29 01:47:04;;;;;;;7.68;4.60;;;;;;;;;;5052760;28;20025;-76
2023/07/29 01:49:30;;;;;;;7.18;3.60;;;;;;;;;;5053112;28;20155;-77
2023/07/29 01:51:56;;;;;;;9.43;3.72;;;;;;;;;;5052918;28;20649;-77
2023/07/29 01:54:22;;;;;;;7.90;3.42;;;;;;;;;;5052814;28;20021;-77
2023/07/29 01:56:48;;;;;;;6.53;3.53;;;;;;;;;;5052750;28;20407;-76
2023/07/29 01:59:15;;;;;;;8.10;3.38;;;;;;;;;;5052643;28;20039;-76
2023/07/29 02:01:42;;;;;;;6.40;3.53;;;;;;;;;;5052756;28;20112;-77
2023/07/29 02:04:08;;;;;;;7.20;3.58;;;;;;;;;;5052880;28;20029;-76
2023/07/29 02:06:34;;;;;;;9.27;3.22;;;;;;;;;;5052667;28;20040;-76
2023/07/29 02:09:01;;;;;;;5.25;3.28;;;;;;;;;;5052019;28;20055;-76
2023/07/29 02:11:27;;;;;;;7.45;3.78;;;;;;;;;;5052484;28;20037;-76
2023/07/29 02:13:56;;;;;;;8.45;3.67;;;;;;;;;;5052799;28;20030;-76
2023/07/29 02:16:23;;;;;;;8.55;3.63;;;;;;;;;;5052400;28;20487;-76
2023/07/29 02:18:49;;;;;;;8.57;3.35;;;;;;;;;;5052277;28;20138;-76
2023/07/29 02:21:16;;;;;;;8.00;3.80;;;;;;;;;;5052461;28;20104;-76
2023/07/29 02:23:42;;;;;;;6.72;3.75;;;;;;;;;;5052536;28;20096;-76
2023/07/29 02:26:08;;;;;;;6.82;3.83;;;;;;;;;;5052374;28;20104;-76
2023/07/29 02:28:34;;;;;;;7.43;3.65;;;;;;;;;;5052251;28;20029;-76
2023/07/29 02:31:19;;;;;;;6.25;3.40;;;;;;;;;;5052213;28;20036;-76
2023/07/29 02:33:45;;;;;;;6.63;3.63;;;;;;;;;;5052427;28;20032;-76
2023/07/29 02:36:12;;;;;;;7.55;3.78;;;;;;;;;;5052554;28;20486;-76
2023/07/29 02:38:38;;;;;;;7.22;3.83;;;;;;;;;;5052221;28;20052;-76
2023/07/29 02:41:05;;;;;;;8.55;3.65;;;;;;;;;;5052153;28;20029;-76
2023/07/29 02:43:31;;;;;;;5.53;3.83;;;;;;;;;;5052022;28;20063;-76
2023/07/29 02:45:57;;;;;;;6.22;3.40;;;;;;;;;;5051941;28;20425;-77
2023/07/29 02:48:23;;;;;;;6.15;3.10;;;;;;;;;;5052083;28;20021;-77
2023/07/29 02:50:49;;;;;;;6.43;3.42;;;;;;;;;;5052036;28;20360;-77
2023/07/29 02:53:15;;;;;;;6.93;3.10;;;;;;;;;;5052141;28;20034;-76
2023/07/29 02:55:41;;;;;;;6.03;3.00;;;;;;;;;;5052114;28;20106;-76
2023/07/29 02:58:07;;;;;;;7.93;2.92;;;;;;;;;;5052110;28;20029;-76
2023/07/29 03:00:33;;;;;;;8.18;2.90;;;;;;;;;;5052030;28;20025;-76
2023/07/29 03:03:00;;;;;;;6.95;2.80;;;;;;;;;;5052005;28;20052;-76
2023/07/29 03:05:29;;;;;;;9.10;2.80;;;;;;;;;;5052043;28;20123;-77
2023/07/29 03:07:55;;;;;;;8.63;2.50;;;;;;;;;;5051919;28;20037;-76
2023/07/29 03:10:22;;;;;;;4.97;1.90;;;;;;;;;;5051656;28;20051;-76
2023/07/29 03:12:48;;;;;;;3.10;2.03;;;;;;;;;;5052129;28;20379;-76
2023/07/29 03:15:14;;;;;;;5.82;2.00;;;;;;;;;;5051841;28;20033;-76
2023/07/29 03:17:40;;;;;;;4.57;1.98;;;;;;;;;;5051926;28;20029;-76
2023/07/29 03:20:06;;;;;;;4.60;1.73;;;;;;;;;;5051901;28;20021;-76
2023/07/29 03:22:32;;;;;;;3.97;2.20;;;;;;;;;;5052030;28;20025;-77
2023/07/29 03:24:58;;;;;;;5.07;2.00;;;;;;;;;;5051744;28;20136;-77
2023/07/29 03:27:24;;;;;;;7.13;2.17;;;;;;;;;;5051645;28;20088;-77
2023/07/29 03:29:50;;;;;;;5.63;2.25;;;;;;;;;;5051771;28;20100;-76
2023/07/29 03:32:16;;;;;;;8.98;2.55;;;;;;;;;;5053837;28;20368;-76
2023/07/29 03:34:42;;;;;;;5.90;2.30;;;;;;;;;;5055218;28;20109;-76
2023/07/29 03:37:09;;;;;;;6.15;2.28;;;;;;;;;;5055471;28;20025;-76
2023/07/29 03:39:35;;;;;;;9.70;2.38;;;;;;;;;;5055096;28;20033;-76
2023/07/29 03:42:01;;;;;;;4.60;2.33;;;;;;;;;;5055004;28;20029;-76
2023/07/29 03:44:27;;;;;;;5.43;2.45;;;;;;;;;;5054995;28;20036;-77
2023/07/29 03:46:53;;;;;;;4.55;2.38;;;;;;;;;;5055115;28;20033;-76
2023/07/29 03:49:19;;;;;;;5.35;2.47;;;;;;;;;;5055289;28;20155;-76
2023/07/29 03:51:45;;;;;;;8.75;2.72;;;;;;;;;;5054955;28;20108;-76
2023/07/29 03:54:11;;;;;;;6.25;2.60;;;;;;;;;;5055130;28;20017;-77
2023/07/29 03:56:38;;;;;;;6.55;2.58;;;;;;;;;;5055076;28;20044;-77
2023/07/29 03:59:04;;;;;;;7.30;2.15;;;;;;;;;;5055112;28;20029;-77
2023/07/29 04:01:30;;;;;;;5.43;2.35;;;;;;;;;;5054882;28;20046;-77
2023/07/29 04:03:56;;;;;;;5.60;2.55;;;;;;;;;;5055220;28;20025;-77
2023/07/29 04:06:22;;;;;;;6.95;2.55;;;;;;;;;;5054769;28;20051;-77
2023/07/29 04:08:49;;;;;;;7.00;2.95;;;;;;;;;;5053603;28;20083;-78
2023/07/29 04:11:15;;;;;;;7.28;3.42;;;;;;;;;;5054732;28;20032;-77
2023/07/29 04:13:41;;;;;;;7.55;3.70;;;;;;;;;;5054576;28;20364;-76
2023/07/29 04:16:07;;;;;;;8.43;3.50;;;;;;;;;;5054815;28;20017;-77
2023/07/29 04:18:33;;;;;;;8.68;3.47;;;;;;;;;;5054569;28;20075;-77
2023/07/29 04:20:59;;;;;;;7.75;3.85;;;;;;;;;;5055656;28;20028;-77
2023/07/29 04:23:25;;;;;;;6.55;3.45;;;;;;;;;;5054823;28;20036;-77
2023/07/29 04:25:51;;;;;;;7.15;3.58;;;;;;;;;;5054236;28;20028;-77
2023/07/29 04:28:17;;;;;;;8.30;3.22;;;;;;;;;;5054673;28;20038;-77
2023/07/29 04:30:43;;;;;;;8.40;3.15;;;;;;;;;;5054662;28;20100;-77
2023/07/29 04:33:09;;;;;;;9.07;2.95;;;;;;;;;;5054450;28;20101;-77
2023/07/29 04:35:35;;;;;;;6.85;2.60;;;;;;;;;;5054679;28;20342;-77
2023/07/29 04:38:01;;;;;;;5.75;2.45;;;;;;;;;;5054235;28;20036;-77
2023/07/29 04:40:27;;;;;;;10.20;2.53;;;;;;;;;;5054417;28;20467;-77
2023/07/29 04:42:53;;;;;;;7.65;3.03;;;;;;;;;;5054484;28;20029;-77
2023/07/29 04:45:20;;;;;;;5.85;2.72;;;;;;;;;;5054152;28;20076;-77
2023/07/29 04:47:46;;;;;;;7.57;2.65;;;;;;;;;;5054409;28;20024;-77
2023/07/29 04:50:12;;;;;;;5.70;2.60;;;;;;;;;;5054757;28;20466;-77
2023/07/29 04:52:38;;;;;;;6.07;2.72;;;;;;;;;;5055405;28;20025;-77
2023/07/29 04:55:04;;;;;;;9.18;2.88;;;;;;;;;;5054460;28;20029;-77
2023/07/29 04:57:30;;;;;;;7.57;2.35;;;;;;;;;;5054579;28;20056;-77
2023/07/29 04:59:56;;;;;;;6.53;2.45;;;;;;;;;;5054408;28;20052;-76
2023/07/29 05:02:22;;;;;;;5.88;3.00;;;;;;;;;;5055083;28;20108;-77
2023/07/29 05:04:48;;;;;;;5.60;2.58;;;;;;;;;;5053862;28;20452;-77
2023/07/29 05:07:14;;;;;;;9.48;2.83;;;;;;;;;;5054591;28;20041;-77
2023/07/29 05:09:40;;;;;;;9.57;2.58;;;;;;;;;;5053669;28;20122;-77
2023/07/29 05:12:06;;;;;;;7.50;3.03;;;;;;;;;;5053746;28;20345;-77
2023/07/29 05:14:32;;;;;;;6.38;2.80;;;;;;;;;;5054239;28;20025;-77
2023/07/29 05:16:58;;;;;;;7.47;2.63;;;;;;;;;;5053893;28;20427;-77
2023/07/29 05:19:24;;;;;;;7.18;2.55;;;;;;;;;;5053994;28;20035;-76
2023/07/29 05:21:50;;;;;;;9.95;2.67;;;;;;;;;;5054062;28;20033;-77
2023/07/29 05:24:16;;;;;;;7.53;3.00;;;;;;;;;;5054633;28;20029;-77
2023/07/29 05:26:42;;;;;;;6.03;2.78;;;;;;;;;;5053457;28;20104;-77
2023/07/29 05:29:08;;;;;;;12.52;3.22;;;;;;;;;;5053494;28;20033;-77
2023/07/29 05:31:34;;;;;;;9.25;3.47;;;;;;;;;;5053693;28;20025;-77
2023/07/29 05:34:00;;;;;;;8.57;2.65;;;;;;;;;;5054506;28;20429;-77
2023/07/29 05:36:26;;;;;;;5.03;2.90;;;;;;;;;;5054428;28;20029;-77
2023/07/29 05:38:52;;;;;;;7.35;3.10;;;;;;;;;;5053548;28;20025;-76
2023/07/29 05:41:18;;;;;;;11.02;3.20;;;;;;;;;;5053682;28;20112;-77
2023/07/29 05:43:45;;;;;;;6.88;2.78;;;;;;;;;;5054623;28;20312;-77
2023/07/29 05:46:11;;;;;;;7.43;3.15;;;;;;;;;;5054258;28;20025;-77
2023/07/29 05:48:37;;;;;;;6.65;2.92;;;;;;;;;;5053935;28;20025;-77
2023/07/29 05:51:05;;;;;;;7.15;2.90;;;;;;;;;;5054549;28;20109;-77
2023/07/29 05:53:31;;;;;;;7.75;2.80;;;;;;;;;;5054579;28;20021;-77
2023/07/29 05:55:57;;;;;;;6.72;2.72;;;;;;;;;;5053104;28;20017;-77
2023/07/29 05:58:23;;;;;;;6.95;3.00;;;;;;;;;;5053989;28;20385;-77
2023/07/29 06:00:49;;;;;;;8.40;3.10;;;;;;;;;;5053743;28;20526;-77
2023/07/29 06:03:15;;;;;;;6.53;2.42;;;;;;;;;;5053381;28;20468;-77
2023/07/29 06:05:41;;;;;;;6.57;2.65;;;;;;;;;;5053830;28;20526;-77
2023/07/29 06:08:08;;;;;;;8.27;2.50;;;;;;;;;;5054115;28;20087;-77
2023/07/29 06:10:34;;;;;;;7.55;2.28;;;;;;;;;;5052905;28;20503;-77
2023/07/29 06:13:00;;;;;;;8.40;2.35;;;;;;;;;;5053555;28;20025;-77
2023/07/29 06:15:27;;;;;;;8.95;2.50;;;;;;;;;;5037747;28;20419;-77
2023/07/29 06:17:53;;;;;;;5.60;2.60;;;;;;;;;;5033480;28;20443;-77
2023/07/29 06:20:19;;;;;;;7.05;2.55;;;;;;;;;;5033842;28;20250;-77
2023/07/29 06:22:45;;;;;;;8.23;2.67;;;;;;;;;;5034420;28;20029;-77
2023/07/29 06:25:11;;;;;;;7.28;2.63;;;;;;;;;;5052744;28;20073;-77
2023/07/29 06:27:37;;;;;;;9.20;2.90;;;;;;;;;;5052553;28;20029;-77
2023/07/29 06:30:04;;;;;;;7.15;2.50;;;;;;;;;;5052731;28;20025;-77
2023/07/29 06:32:29;;;;;;;5.53;2.50;;;;;;;;;;5052533;28;20162;-77
2023/07/29 06:34:56;;;;;;;10.40;3.17;;;;;;;;;;5053164;28;20129;-77
2023/07/29 06:37:22;;;;;;;7.82;2.80;;;;;;;;;;5052589;28;20032;-77
2023/07/29 06:39:48;;;;;;;6.68;2.55;;;;;;;;;;5052175;28;20028;-77
2023/07/29 06:42:14;;;;;;;8.07;2.38;;;;;;;;;;5051188;28;20036;-77
2023/07/29 06:44:40;;;;;;;8.88;2.70;;;;;;;;;;5052265;28;20021;-77
2023/07/29 06:47:07;;;;;;;6.50;2.55;;;;;;;;;;5053979;28;20486;-77
2023/07/29 06:49:33;;;;;;;4.80;2.38;;;;;;;;;;5054646;28;20025;-77
2023/07/29 06:51:59;;;;;;;5.38;2.50;;;;;;;;;;5054220;28;20022;-77
2023/07/29 06:54:28;;;;;;;5.60;2.20;;;;;;;;;;5054614;28;20025;-77
2023/07/29 06:56:54;;;;;;;7.50;2.72;;;;;;;;;;5056727;28;20029;-77
2023/07/29 06:59:20;;;;;;;7.32;2.53;;;;;;;;;;5055233;28;20511;-77
2023/07/29 07:01:47;;;;;;;5.97;2.05;;;;;;;;;;5057908;28;20025;-77
2023/07/29 07:04:13;;;;;;;8.23;2.50;;;;;;;;;;5056311;28;20025;-77
2023/07/29 07:06:39;;;;;;;6.85;2.53;;;;;;;;;;5055885;28;20032;-78
2023/07/29 07:09:05;;;;;;;8.10;2.20;;;;;;;;;;5058049;28;20041;-79
2023/07/29 07:11:31;;;;;;;8.27;2.47;;;;;;;;;;5040199;28;20029;-78
2023/07/29 07:13:57;;;;;;;6.20;1.80;;;;;;;;;;5037222;28;20100;-78
2023/07/29 07:16:23;;;;;;;7.85;2.30;;;;;;;;;;5037296;28;20026;-78
2023/07/29 07:18:49;;;;;;;5.45;2.15;;;;;;;;;;5037583;28;20064;-78
2023/07/29 07:21:15;;;;;;;4.20;1.75;;;;;;;;;;5040331;28;20030;-77
2023/07/29 07:23:41;;;;;;;5.03;1.77;;;;;;;;;;5043019;28;20048;-77
2023/07/29 07:26:07;;;;;;;5.40;2.28;;;;;;;;;;5056838;28;20021;-77
2023/07/29 07:28:33;;;;;;;6.22;2.00;;;;;;;;;;5056477;28;20055;-77
2023/07/29 07:30:59;;;;;;;6.43;1.92;;;;;;;;;;5057294;28;20033;-77
2023/07/29 07:33:25;;;;;;;6.78;2.03;;;;;;;;;;5057626;28;20025;-77
2023/07/29 07:35:51;;;;;;;5.57;1.98;;;;;;;;;;5058119;28;20025;-77
2023/07/29 07:38:17;;;;;;;6.90;2.35;;;;;;;;;;5057908;28;20571;-77
2023/07/29 07:40:43;;;;;;;5.03;1.80;;;;;;;;;;5054985;28;20017;-77
2023/07/29 07:43:09;;;;;;;3.80;1.50;;;;;;;;;;5059467;28;20028;-77
2023/07/29 07:45:35;;;;;;;5.88;1.70;;;;;;;;;;5059408;28;20056;-77
2023/07/29 07:48:02;;;;;;;4.50;1.52;;;;;;;;;;5058581;28;20063;-77
2023/07/29 07:50:30;;;;;;;7.45;1.70;;;;;;;;;;5057868;28;20021;-77
2023/07/29 07:52:56;;;;;;;4.45;1.40;;;;;;;;;;5056852;28;20033;-77
2023/07/29 07:55:22;;;;;;;5.25;1.50;;;;;;;;;;5058544;28;20032;-78
2023/07/29 07:57:48;;;;;;;4.55;1.70;;;;;;;;;;5058111;28;20036;-79
2023/07/29 08:00:15;;;;;;;7.45;1.75;;;;;;;;;;5056660;28;20029;-78
2023/07/29 08:02:41;;;;;;;4.75;1.67;;;;;;;;;;5057558;28;20017;-78
2023/07/29 08:05:08;;;;;;;4.18;1.80;;;;;;;;;;5058411;28;20048;-78
2023/07/29 08:07:34;;;;;;;4.40;1.65;;;;;;;;;;5057579;28;20044;-78
2023/07/29 08:10:00;;;;;;;7.45;1.63;;;;;;;;;;5057282;28;20056;-78
2023/07/29 08:12:26;;;;;;;4.45;1.60;;;;;;;;;;5055710;28;20013;-78
2023/07/29 08:14:52;;;;;;;6.00;1.70;;;;;;;;;;5056567;28;20028;-78
2023/07/29 08:17:18;;;;;;;4.25;1.13;;;;;;;;;;5054864;28;20025;-78
2023/07/29 08:19:44;;;;;;;4.75;1.42;;;;;;;;;;5057742;28;20029;-78
2023/07/29 08:22:10;;;;;;;3.25;1.17;;;;;;;;;;5057699;28;20017;-78
2023/07/29 08:24:36;;;;;;;2.17;1.38;;;;;;;;;;5056321;28;20046;-78
2023/07/29 08:27:02;;;;;;;2.67;1.23;;;;;;;;;;5055423;28;20025;-78
2023/07/29 08:29:28;;;;;;;2.70;1.30;;;;;;;;;;5055480;28;20041;-78
2023/07/29 08:31:55;;;;;;;3.15;1.55;;;;;;;;;;5055680;28;20044;-78
2023/07/29 08:34:21;;;;;;;3.65;1.20;;;;;;;;;;5056707;28;20017;-78
2023/07/29 08:36:47;;;;;;;3.67;1.42;;;;;;;;;;5055772;28;20033;-78
2023/07/29 08:39:13;;;;;;;4.20;1.33;;;;;;;;;;5055320;28;20040;-78
2023/07/29 08:41:50;;;;;;;4.22;1.60;;;;;;;;;;5055298;28;20021;-78
2023/07/29 08:44:22;;;;;;;4.28;1.50;;;;;;;;;;5056536;28;20087;-78
2023/07/29 08:46:49;;;;;;;3.55;1.33;;;;;;;;;;5055514;28;20049;-78
2023/07/29 08:49:18;;;;;;;5.18;1.30;;;;;;;;;;5054570;28;20035;-78
2023/07/29 08:51:44;;;;;;;;;;;;;;;;;;5057534;28;20019;-78
2023/07/29 08:54:11;;;;;;;3.10;1.40;;;;;;;;;;5055457;28;20003;-78
2023/07/29 08:56:37;;;;;;;5.57;1.50;;;;;;;;;;5057043;28;20029;-78
2023/07/29 08:59:04;;;;;;;3.33;1.30;;;;;;;;;;5056348;28;20051;-78
2023/07/29 09:01:30;;;;;;;3.80;1.55;;;;;;;;;;5056300;28;20052;-78
2023/07/29 09:03:57;;;;;;;4.72;1.65;;;;;;;;;;5056670;28;20033;-78
2023/07/29 09:06:25;;;;;;;2.45;1.20;;;;;;;;;;5056215;28;20071;-78
2023/07/29 09:08:52;;;;;;;3.53;1.50;;;;;;;;;;5056114;28;20040;-79
2023/07/29 09:11:19;;;;;;;4.75;1.60;;;;;;;;;;5055786;28;20029;-78
2023/07/29 09:13:45;;;;;;;4.25;1.60;;;;;;;;;;5055223;28;20360;-78
2023/07/29 09:16:11;;;;;;;2.65;1.23;;;;;;;;;;5055389;28;20051;-78
2023/07/29 09:18:37;;;;;;;5.13;1.52;;;;;;;;;;5055373;28;20025;-78
2023/07/29 09:21:03;;;;;;;5.03;1.50;;;;;;;;;;5055341;28;20056;-78
2023/07/29 09:23:39;;;;;;;5.47;1.65;;;;;;;;;;5054083;28;20068;-78
2023/07/29 09:26:06;;;;;;;4.95;1.63;;;;;;;;;;5054665;28;20027;-78
2023/07/29 09:28:36;;;;;;;3.70;1.48;;;;;;;;;;5053746;28;20060;-78
2023/07/29 09:31:02;;;;;;;4.35;1.60;;;;;;;;;;5053584;28;20033;-78
2023/07/29 09:33:36;;;;;;;4.18;1.40;;;;;;;;;;5054333;28;20047;-78
2023/07/29 09:36:03;;;;;;;4.25;1.50;;;;;;;;;;5055960;28;20017;-78
2023/07/29 09:38:29;;;;;;;6.32;1.65;;;;;;;;;;5054414;28;20041;-78
2023/07/29 09:40:56;;;;;;;4.53;1.58;;;;;;;;;;5056009;28;20025;-78
2023/07/29 09:43:26;;;;;;;6.03;1.40;;;;;;;;;;5056849;28;20064;-78
2023/07/29 09:45:52;;;;;;;3.28;1.40;;;;;;;;;;5057872;28;20368;-78
2023/07/29 09:48:22;;;;;;;3.47;1.27;;;;;;;;;;5058536;28;20033;-78
2023/07/29 09:50:49;;;;;;;1.70;1.13;;;;;;;;;;5057473;28;20567;-78
2023/07/29 09:53:15;;;;;;;1.45;0.88;;;;;;;;;;5055352;28;20530;-78
2023/07/29 09:55:46;;;;;;;1.95;0.90;;;;;;;;;;5056235;28;20112;-78
2023/07/29 09:58:12;;;;;;;1.75;1.00;;;;;;;;;;5056290;28;20036;-78
2023/07/29 10:00:39;;;;;;;4.50;1.10;;;;;;;;;;5056196;28;20036;-78
2023/07/29 10:03:07;;;;;;;3.85;1.00;;;;;;;;;;5057035;28;20036;-78
2023/07/29 10:05:35;;;;;;;1.98;0.90;;;;;;;;;;5055366;28;20021;-78
2023/07/29 10:08:01;;;;;;;2.60;0.88;;;;;;;;;;5056055;28;20502;-78
2023/07/29 10:10:28;;;;;;;1.42;0.85;;;;;;;;;;5056130;28;20049;-78
2023/07/29 10:12:55;;;;;;;2.83;1.00;;;;;;;;;;5054008;28;20021;-78
2023/07/29 10:15:21;;;;;;;1.45;1.05;;;;;;;;;;5053933;28;20108;-78
2023/07/29 10:17:48;;;;;;;3.15;1.20;;;;;;;;;;5055179;28;20029;-78
2023/07/29 10:20:14;;;;;;;2.83;1.15;;;;;;;;;;5056269;28;20073;-78
2023/07/29 10:22:41;;;;;;;2.28;0.85;;;;;;;;;;5054915;28;20106;-78
2023/07/29 10:25:17;;;;;;;4.22;1.40;;;;;;;;;;5055060;28;20155;-78
2023/07/29 10:28:04;;;;;;;3.55;1.40;;;;;;;;;;5053981;28;20025;-78
2023/07/29 10:30:30;;;;;;;3.63;1.48;;;;;;;;;;5055193;28;20048;-78
2023/07/29 10:32:58;;;;;;;3.38;1.38;;;;;;;;;;5055298;28;20472;-78
2023/07/29 10:35:25;;;;;;;4.03;1.63;;;;;;;;;;5054417;28;20109;-78
2023/07/29 10:37:53;;;;;;;6.63;1.65;;;;;;;;;;5054273;28;20025;-78
2023/07/29 10:40:19;;;;;;;3.42;1.13;;;;;;;;;;5056962;28;20013;-78
2023/07/29 10:43:02;;;;;;;4.50;1.38;;;;;;;;;;5059098;28;20040;-78
2023/07/29 10:45:36;;;;;;;2.53;0.90;;;;;;;;;;5059447;28;20486;-78
2023/07/29 10:48:05;;;;;;;2.78;1.15;;;;;;;;;;5059347;28;20033;-78
2023/07/29 10:50:31;;;;;;;3.70;1.40;;;;;;;;;;5060535;28;20081;-78
2023/07/29 10:52:57;;;;;;;4.25;1.50;;;;;;;;;;5060362;28;20533;-78
2023/07/29 10:55:25;;;;;;;1.25;1.10;;;;;;;;;;5059082;28;20028;-78
2023/07/29 10:57:51;;;;;;;2.35;1.33;;;;;;;;;;5059061;28;20452;-78
2023/07/29 11:00:20;;;;;;;3.95;1.73;;;;;;;;;;5058121;28;20029;-78
2023/07/29 11:02:48;;;;;;;3.28;1.90;;;;;;;;;;5058319;28;20506;-77
2023/07/29 11:05:18;;;;;;;3.80;1.60;;;;;;;;;;5058068;28;20426;-78
2023/07/29 11:07:48;;;;;;;2.88;1.50;;;;;;;;;;5058103;28;20051;-78
2023/07/29 11:10:15;;;;;;;2.70;1.20;;;;;;;;;;5057710;28;20495;-77
2023/07/29 11:12:45;;;;;;;5.13;1.42;;;;;;;;;;5056495;28;20029;-78
2023/07/29 11:15:12;;;;;;;3.63;1.80;;;;;;;;;;5056865;28;20025;-78
2023/07/29 11:17:42;;;;;;;1.52;1.05;;;;;;;;;;5056654;28;20021;-77
2023/07/29 11:20:09;;;;;;;3.60;1.27;;;;;;;;;;5056806;28;20021;-78
2023/07/29 11:22:35;;;;;;;2.63;1.20;;;;;;;;;;5056525;28;20375;-78
2023/07/29 11:25:01;;;;;;;3.10;1.10;;;;;;;;;;5056395;28;20017;-78
2023/07/29 11:27:27;;;;;;;3.42;1.08;;;;;;;;;;5056137;28;20522;-78
2023/07/29 11:30:10;;;;;;;4.03;1.17;;;;;;;;;;5055976;28;20041;-78
2023/07/29 11:32:36;;;;;;;3.17;1.38;;;;;;;;;;5056792;28;20025;-78
2023/07/29 11:35:03;;;;;;;2.90;1.63;;;;;;;;;;5056302;28;20048;-77
2023/07/29 11:37:29;;;;;;;3.20;1.30;;;;;;;;;;5056714;28;20537;-78
2023/07/29 11:39:56;;;;;;;3.67;1.48;;;;;;;;;;5056543;28;20025;-78
2023/07/29 11:42:22;;;;;;;3.47;1.40;;;;;;;;;;5056534;28;20032;-79
2023/07/29 11:44:48;;;;;;;3.50;1.30;;;;;;;;;;5057188;28;20029;-78
2023/07/29 11:47:14;;;;;;;4.75;1.88;;;;;;;;;;5056948;28;20100;-78
2023/07/29 11:49:40;;;;;;;2.92;1.40;;;;;;;;;;5056022;28;20048;-79
2023/07/29 11:52:08;;;;;;;3.10;1.48;;;;;;;;;;5055359;28;20029;-78
2023/07/29 11:54:35;;;;;;;4.82;1.30;;;;;;;;;;5055640;28;20166;-78
2023/07/29 11:57:01;;;;;;;3.90;1.30;;;;;;;;;;5055984;28;20038;-78
2023/07/29 11:59:28;;;;;;;3.00;1.40;;;;;;;;;;5055590;28;20104;-78
2023/07/29 12:01:54;;;;;;;3.50;1.42;;;;;;;;;;5056074;28;20369;-78
2023/07/29 12:04:20;;;;;;;3.13;1.63;;;;;;;;;;5055883;28;20029;-78
2023/07/29 12:06:47;;;;;;;2.58;1.17;;;;;;;;;;5055624;28;20029;-77
2023/07/29 12:09:13;;;;;;;3.53;1.25;;;;;;;;;;5055517;28;20510;-78
2023/07/29 12:11:39;;;;;;;5.10;1.50;;;;;;;;;;5056966;28;20025;-78
2023/07/29 12:14:08;;;;;;;2.63;1.40;;;;;;;;;;5056217;28;20048;-79
2023/07/29 12:16:40;;;;;;;3.95;1.63;;;;;;;;;;5056325;28;20052;-78
2023/07/29 12:19:07;;;;;;;5.13;1.92;;;;;;;;;;5055229;28;20064;-77
2023/07/29 12:21:33;;;;;;;5.40;1.48;;;;;;;;;;5054726;28;20043;-77
2023/07/29 12:23:59;;;;;;;4.00;1.50;;;;;;;;;;5054287;28;20021;-77
2023/07/29 12:26:29;;;;;;;6.07;1.70;;;;;;;;;;5054399;28;20029;-77
2023/07/29 12:28:56;;;;;;;5.65;1.45;;;;;;;;;;5054061;28;20029;-77
2023/07/29 12:31:22;;;;;;;3.65;1.58;;;;;;;;;;5054555;28;20051;-77
2023/07/29 12:33:48;;;;;;;4.10;1.50;;;;;;;;;;5054375;28;20021;-77
2023/07/29 12:36:14;;;;;;;4.45;1.20;;;;;;;;;;5054333;28;20179;-77
2023/07/29 12:38:43;;;;;;;3.60;1.55;;;;;;;;;;5054104;28;20036;-77
2023/07/29 12:41:09;;;;;;;6.05;2.10;;;;;;;;;;5054341;28;20029;-77
2023/07/29 12:43:35;;;;;;;3.92;1.83;;;;;;;;;;5054157;28;20095;-77
2023/07/29 12:46:01;;;;;;;2.30;1.20;;;;;;;;;;5054069;28;20112;-77
2023/07/29 12:48:27;;;;;;;4.18;1.73;;;;;;;;;;5053906;28;20479;-78
2023/07/29 12:50:53;;;;;;;5.38;1.63;;;;;;;;;;5053989;28;20051;-77
2023/07/29 12:53:19;;;;;;;3.42;1.80;;;;;;;;;;5053976;28;20029;-77
2023/07/29 12:55:45;;;;;;;5.05;1.45;;;;;;;;;;5053863;28;20032;-77
2023/07/29 12:58:11;;;;;;;3.17;1.63;;;;;;;;;;5053808;28;20108;-77
2023/07/29 13:00:38;;;;;;;4.93;1.77;;;;;;;;;;5053670;28;20382;-77
2023/07/29 13:03:05;;;;;;;3.90;1.77;;;;;;;;;;5053699;28;20056;-77
2023/07/29 13:05:31;;;;;;;3.00;1.58;;;;;;;;;;5053660;28;20023;-77
2023/07/29 13:07:58;;;;;;;3.75;1.70;;;;;;;;;;5052938;28;20033;-77
2023/07/29 13:10:24;;;;;;;4.80;1.70;;;;;;;;;;5050231;28;20044;-77
2023/07/29 13:12:50;;;;;;;4.03;1.67;;;;;;;;;;5052653;28;20032;-77
2023/07/29 13:15:16;;;;;;;4.88;1.85;;;;;;;;;;5052473;28;20021;-77
2023/07/29 13:17:42;;;;;;;5.78;1.92;;;;;;;;;;5051703;28;20092;-77
2023/07/29 13:20:08;;;;;;;2.80;1.50;;;;;;;;;;5053173;28;20456;-78
2023/07/29 13:22:34;;;;;;;2.92;2.00;;;;;;;;;;5053231;28;20025;-78
2023/07/29 13:25:00;;;;;;;5.40;1.90;;;;;;;;;;5052991;28;20025;-78
2023/07/29 13:27:26;;;;;;;4.25;1.60;;;;;;;;;;5053149;28;20063;-77
2023/07/29 13:29:52;;;;;;;4.53;1.60;;;;;;;;;;5053193;28;20025;-78
2023/07/29 13:32:18;;;;;;;5.78;1.67;;;;;;;;;;5053035;28;20025;-77
2023/07/29 13:34:44;;;;;;;5.38;1.90;;;;;;;;;;5052965;28;20486;-78
2023/07/29 13:37:10;;;;;;;5.03;1.90;;;;;;;;;;5052819;28;20028;-77
2023/07/29 13:39:36;;;;;;;5.20;1.77;;;;;;;;;;5052854;28;20419;-77
2023/07/29 13:42:02;;;;;;;5.80;2.10;;;;;;;;;;5052900;28;20063;-77
2023/07/29 13:44:28;;;;;;;3.65;1.60;;;;;;;;;;5053032;28;20032;-77
2023/07/29 13:46:54;;;;;;;2.75;1.60;;;;;;;;;;5052761;28;20025;-77
2023/07/29 13:49:21;;;;;;;4.97;1.52;;;;;;;;;;5052717;28;20029;-78
2023/07/29 13:51:47;;;;;;;4.43;1.88;;;;;;;;;;5052843;28;20033;-77
2023/07/29 13:54:13;;;;;;;5.22;1.83;;;;;;;;;;5052688;28;20506;-77
2023/07/29 13:56:39;;;;;;;5.88;1.50;;;;;;;;;;5052683;28;20039;-77
2023/07/29 13:59:05;;;;;;;2.53;1.50;;;;;;;;;;5051278;28;20025;-77
2023/07/29 14:01:31;;;;;;;5.68;2.00;;;;;;;;;;5052454;28;20464;-77
2023/07/29 14:03:57;;;;;;;3.03;1.80;;;;;;;;;;5052577;28;20021;-77
2023/07/29 14:06:23;;;;;;;5.53;1.92;;;;;;;;;;5052503;28;20028;-77
2023/07/29 14:08:49;;;;;;;2.80;1.50;;;;;;;;;;5052374;28;20464;-77
2023/07/29 14:11:15;;;;;;;4.20;1.60;;;;;;;;;;5052510;28;20036;-77
2023/07/29 14:13:41;;;;;;;3.08;1.52;;;;;;;;;;5052325;28;20450;-77
2023/07/29 14:16:07;;;;;;;6.97;1.70;;;;;;;;;;5051914;28;20071;-77
2023/07/29 14:18:33;;;;;;;4.07;1.50;;;;;;;;;;5052160;28;20079;-77
2023/07/29 14:20:59;;;;;;;2.63;1.30;;;;;;;;;;5052342;28;20530;-77
2023/07/29 14:23:25;;;;;;;3.47;1.60;;;;;;;;;;5052180;28;20103;-77
2023/07/29 14:25:51;;;;;;;4.78;1.65;;;;;;;;;;5052242;28;20064;-78
2023/07/29 14:28:17;;;;;;;3.97;1.40;;;;;;;;;;5052046;28;20061;-77
2023/07/29 14:30:43;;;;;;;4.47;1.60;;;;;;;;;;5051873;28;20483;-78
2023/07/29 14:33:10;;;;;;;6.53;1.42;;;;;;;;;;5052970;28;20566;-78
2023/07/29 14:35:36;;;;;;;3.22;1.55;;;;;;;;;;5052369;28;20048;-77
2023/07/29 14:38:02;;;;;;;3.60;1.90;;;;;;;;;;5052291;28;20377;-77
2023/07/29 14:40:28;;;;;;;6.03;2.00;;;;;;;;;;5052004;28;20059;-77